Time;durP1;ratioP1;P1;durP2;ratioP2;P2;SDS_P1;SDS_P2;PMS_P1;PMS_P2;Temp;Humidity;BMP_temperature;BMP_pressure;BME280_temperature;BME280_humidity;BME280_pressure;Samples;Min_cycle;Max_cycle;Signal;HPM_P1;HPM_P2
2023/06/05 00:00:44;;;;;;;0.40;0.40;;;20.60;61.90;;;;;;5079853;28;20672;-82
2023/06/05 00:03:12;;;;;;;0.40;0.40;;;20.60;61.90;;;;;;5080758;28;20568;-82
2023/06/05 00:05:41;;;;;;;1.60;0.30;;;20.60;62.10;;;;;;5077534;28;20337;-82
2023/06/05 00:08:09;;;;;;;0.25;0.25;;;20.60;62.50;;;;;;5080344;28;20216;-82
2023/06/05 00:10:37;;;;;;;1.13;0.83;;;20.60;62.50;;;;;;5080529;28;20214;-83
2023/06/05 00:13:07;;;;;;;0.27;0.27;;;20.60;62.50;;;;;;5090373;28;20192;-83
2023/06/05 00:15:37;;;;;;;0.20;0.20;;;20.60;62.50;;;;;;5089259;28;20193;-83
2023/06/05 00:18:06;;;;;;;0.30;0.30;;;20.60;62.60;;;;;;5096690;28;20232;-83
2023/06/05 00:20:34;;;;;;;0.40;0.40;;;20.60;62.60;;;;;;5090609;28;20281;-82
2023/06/05 00:23:03;;;;;;;0.20;0.20;;;20.60;62.60;;;;;;5082099;28;21042;-83
2023/06/05 00:25:31;;;;;;;5.40;0.30;;;20.60;62.60;;;;;;5083387;28;20193;-83
2023/06/05 00:27:59;;;;;;;0.30;0.30;;;20.60;62.80;;;;;;5085455;28;20190;-82
2023/06/05 00:30:29;;;;;;;0.30;0.30;;;20.60;62.90;;;;;;5097557;28;20226;-81
2023/06/05 00:32:58;;;;;;;0.10;0.10;;;20.60;63.00;;;;;;5089833;28;20194;-82
2023/06/05 00:35:26;;;;;;;0.20;0.20;;;20.50;62.90;;;;;;5079517;28;20267;-83
2023/06/05 00:37:54;;;;;;;0.50;0.50;;;20.50;62.90;;;;;;5073822;28;20575;-83
2023/06/05 00:40:23;;;;;;;0.97;0.47;;;20.50;63.10;;;;;;5086659;28;20243;-82
2023/06/05 00:42:51;;;;;;;0.20;0.20;;;20.50;63.10;;;;;;5083915;28;20194;-83
2023/06/05 00:45:19;;;;;;;0.50;0.50;;;20.50;63.30;;;;;;5078011;28;20635;-84
2023/06/05 00:47:49;;;;;;;0.57;0.57;;;20.40;63.10;;;;;;5078736;28;20255;-82
2023/06/05 00:50:21;;;;;;;0.50;0.33;;;20.40;63.10;;;;;;5082738;28;20222;-82
2023/06/05 00:52:50;;;;;;;0.27;0.27;;;20.40;63.30;;;;;;5083041;28;20198;-82
2023/06/05 00:55:19;;;;;;;0.37;0.33;;;20.40;63.30;;;;;;5083008;28;20555;-82
2023/06/05 00:57:47;;;;;;;0.40;0.30;;;20.40;63.40;;;;;;5078990;28;20201;-83
2023/06/05 01:00:16;;;;;;;0.30;0.30;;;20.40;63.40;;;;;;5070240;28;20202;-81
2023/06/05 01:02:45;;;;;;;0.20;0.20;;;20.40;63.40;;;;;;5072253;28;20268;-84
2023/06/05 01:05:15;;;;;;;0.23;0.23;;;20.40;63.30;;;;;;5089169;28;20207;-83
2023/06/05 01:07:43;;;;;;;0.73;0.40;;;20.30;63.10;;;;;;5093605;28;20247;-83
2023/06/05 01:10:12;;;;;;;0.40;0.30;;;20.30;63.10;;;;;;5090012;28;20577;-82
2023/06/05 01:12:47;;;;;;;0.20;0.20;;;20.30;63.00;;;;;;5085906;28;20197;-82
2023/06/05 01:15:16;;;;;;;0.30;0.30;;;20.30;62.80;;;;;;5071874;28;20284;-81
2023/06/05 01:17:47;;;;;;;0.85;0.50;;;20.40;62.70;;;;;;5082469;28;20202;-83
2023/06/05 01:20:19;;;;;;;0.30;0.30;;;20.30;62.60;;;;;;5087271;28;20189;-84
2023/06/05 01:22:52;;;;;;;0.33;0.33;;;20.30;62.50;;;;;;5077458;28;20226;-83
2023/06/05 01:25:21;;;;;;;0.30;0.30;;;20.40;62.30;;;;;;5080748;28;20192;-82
2023/06/05 01:27:55;;;;;;;0.30;0.30;;;20.40;62.20;;;;;;5080388;28;20208;-82
2023/06/05 01:30:30;;;;;;;0.20;0.20;;;20.40;62.00;;;;;;5087067;28;20334;-82
2023/06/05 01:33:04;;;;;;;0.70;0.20;;;20.40;61.80;;;;;;5078637;28;20197;-82
2023/06/05 01:35:34;;;;;;;0.53;0.53;;;20.40;61.80;;;;;;5097296;28;20188;-81
2023/06/05 01:38:05;;;;;;;0.87;0.40;;;20.40;61.60;;;;;;5072148;28;20527;-82
2023/06/05 01:40:35;;;;;;;0.37;0.33;;;20.40;61.50;;;;;;5083608;28;20202;-83
2023/06/05 01:43:06;;;;;;;0.77;0.40;;;20.40;61.30;;;;;;5078964;28;20540;-84
2023/06/05 01:45:37;;;;;;;0.20;0.20;;;20.40;61.40;;;;;;5085310;28;20571;-83
2023/06/05 01:48:08;;;;;;;0.40;0.40;;;20.40;61.30;;;;;;5079345;28;20190;-83
2023/06/05 01:50:37;;;;;;;0.60;0.60;;;20.40;61.30;;;;;;5076629;28;20222;-82
2023/06/05 01:53:07;;;;;;;0.37;0.37;;;20.40;61.30;;;;;;5074207;28;20195;-84
2023/06/05 01:55:39;;;;;;;0.30;0.30;;;20.40;61.30;;;;;;5082044;28;20200;-83
2023/06/05 01:58:07;;;;;;;0.30;0.30;;;20.50;61.70;;;;;;5074390;28;20279;-83
2023/06/05 02:00:36;;;;;;;0.20;0.20;;;20.50;61.90;;;;;;5079539;28;20197;-83
2023/06/05 02:03:05;;;;;;;2.00;0.53;;;20.50;63.00;;;;;;5076545;28;20216;-83
2023/06/05 02:05:33;;;;;;;0.77;0.30;;;20.50;63.00;;;;;;5092863;28;20649;-84
2023/06/05 02:08:05;;;;;;;0.37;0.37;;;20.50;63.40;;;;;;5086332;28;20200;-84
2023/06/05 02:10:35;;;;;;;1.07;0.47;;;20.50;64.40;;;;;;5072657;28;20674;-83
2023/06/05 02:13:03;;;;;;;0.80;0.60;;;20.50;64.60;;;;;;5069274;28;20583;-84
2023/06/05 02:15:34;;;;;;;0.40;0.40;;;20.50;65.70;;;;;;5082390;28;20221;-83
2023/06/05 02:18:04;;;;;;;0.60;0.40;;;20.50;66.80;;;;;;5089089;28;20668;-84
2023/06/05 02:20:34;;;;;;;0.50;0.50;;;20.50;67.10;;;;;;5078599;28;20231;-83
2023/06/05 02:23:04;;;;;;;2.73;0.73;;;20.50;66.90;;;;;;5077124;28;20595;-83
2023/06/05 02:25:34;;;;;;;0.20;0.20;;;20.50;66.90;;;;;;5086707;28;20269;-84
2023/06/05 02:28:03;;;;;;;0.30;0.30;;;20.50;66.60;;;;;;5085176;28;20780;-82
2023/06/05 02:30:32;;;;;;;0.73;0.73;;;20.50;66.50;;;;;;5079099;28;20198;-83
2023/06/05 02:33:02;;;;;;;1.50;0.70;;;20.50;66.60;;;;;;5076547;28;20221;-83
2023/06/05 02:35:31;;;;;;;0.20;0.20;;;20.50;67.00;;;;;;5078515;28;20187;-82
2023/06/05 02:37:59;;;;;;;1.33;0.63;;;20.50;67.50;;;;;;5074048;28;20194;-81
2023/06/05 02:40:28;;;;;;;0.30;0.30;;;20.50;68.50;;;;;;5077443;28;20285;-82
2023/06/05 02:42:57;;;;;;;0.33;0.33;;;20.50;68.20;;;;;;5088776;28;20204;-84
2023/06/05 02:45:26;;;;;;;0.40;0.40;;;20.50;68.60;;;;;;5077349;28;20208;-82
2023/06/05 02:47:54;;;;;;;0.50;0.40;;;20.50;69.50;;;;;;5091481;28;20557;-84
2023/06/05 02:50:23;;;;;;;1.37;0.90;;;20.50;69.60;;;;;;5073605;28;20197;-82
2023/06/05 02:52:51;;;;;;;0.30;0.30;;;20.50;69.70;;;;;;5075578;28;20224;-83
2023/06/05 02:55:20;;;;;;;0.30;0.30;;;20.50;69.30;;;;;;5077593;28;20202;-82
2023/06/05 02:57:48;;;;;;;0.30;0.30;;;20.50;69.30;;;;;;5074376;28;20198;-82
2023/06/05 03:00:19;;;;;;;0.53;0.47;;;20.50;69.40;;;;;;5088833;28;20200;-83
2023/06/05 03:02:48;;;;;;;0.73;0.67;;;20.50;69.90;;;;;;5072760;28;20202;-82
2023/06/05 03:05:24;;;;;;;0.60;0.50;;;20.50;70.50;;;;;;5077299;28;20664;-82
2023/06/05 03:07:54;;;;;;;0.73;0.45;;;20.40;70.50;;;;;;5080294;28;20228;-82
2023/06/05 03:10:22;;;;;;;0.30;0.30;;;20.40;70.80;;;;;;5072127;28;20202;-83
2023/06/05 03:12:50;;;;;;;1.43;0.43;;;20.50;70.60;;;;;;5075073;28;20678;-82
2023/06/05 03:15:20;;;;;;;0.53;0.50;;;20.40;70.60;;;;;;5080630;28;20194;-83
2023/06/05 03:17:48;;;;;;;0.40;0.40;;;20.40;70.70;;;;;;5080028;28;20204;-82
2023/06/05 03:20:19;;;;;;;0.57;0.37;;;20.50;70.60;;;;;;5080978;28;20235;-82
2023/06/05 03:22:47;;;;;;;3.23;0.40;;;20.50;71.20;;;;;;5095488;28;20340;-83
2023/06/05 03:25:16;;;;;;;0.20;0.20;;;20.50;71.00;;;;;;5084836;28;20197;-82
2023/06/05 03:27:44;;;;;;;0.70;0.70;;;20.50;71.20;;;;;;5086131;28;20198;-84
2023/06/05 03:30:16;;;;;;;0.83;0.60;;;20.40;71.50;;;;;;5080520;28;20198;-81
2023/06/05 03:32:48;;;;;;;1.13;0.47;;;20.50;72.60;;;;;;5089884;28;20237;-83
2023/06/05 03:35:18;;;;;;;3.80;0.53;;;20.50;72.40;;;;;;5095322;28;20190;-83
2023/06/05 03:37:46;;;;;;;0.67;0.67;;;20.50;72.20;;;;;;5076542;28;20292;-83
2023/06/05 03:40:14;;;;;;;0.37;0.37;;;20.50;72.40;;;;;;5086478;28;20661;-82
2023/06/05 03:42:43;;;;;;;0.60;0.57;;;20.50;72.70;;;;;;5080442;28;20186;-84
2023/06/05 03:45:13;;;;;;;0.77;0.70;;;20.50;72.70;;;;;;5077578;28;20194;-84
2023/06/05 03:47:43;;;;;;;1.10;0.70;;;20.50;72.70;;;;;;5080382;28;20712;-81
2023/06/05 03:50:13;;;;;;;0.40;0.30;;;20.50;72.80;;;;;;5094107;28;20255;-90
2023/06/05 03:52:42;;;;;;;0.30;0.30;;;20.60;72.90;;;;;;5077973;28;20303;-83
2023/06/05 03:55:11;;;;;;;0.30;0.30;;;20.60;73.20;;;;;;5081731;28;20241;-81
2023/06/05 03:57:40;;;;;;;1.85;0.95;;;20.60;73.30;;;;;;5082850;28;20205;-82
2023/06/05 04:00:10;;;;;;;0.43;0.43;;;20.60;73.20;;;;;;5088828;28;20565;-82
2023/06/05 04:02:39;;;;;;;1.00;0.50;;;20.60;73.20;;;;;;5079175;28;20190;-83
2023/06/05 04:05:11;;;;;;;0.60;0.60;;;20.60;73.40;;;;;;5094854;28;20192;-83
2023/06/05 04:07:41;;;;;;;0.50;0.37;;;20.70;73.40;;;;;;5091812;28;20213;-82
2023/06/05 04:10:11;;;;;;;1.75;1.00;;;20.70;73.20;;;;;;5093355;28;20286;-82
2023/06/05 04:12:39;;;;;;;1.88;0.63;;;20.70;73.00;;;;;;5087278;28;20574;-83
2023/06/05 04:15:10;;;;;;;0.63;0.50;;;20.70;73.40;;;;;;5084245;28;20214;-82
2023/06/05 04:17:38;;;;;;;0.82;0.80;;;20.80;73.40;;;;;;5075216;28;20190;-83
2023/06/05 04:20:13;;;;;;;0.38;0.38;;;20.80;73.40;;;;;;5079369;28;20251;-82
2023/06/05 04:22:43;;;;;;;2.05;0.32;;;20.80;73.80;;;;;;5081536;28;20216;-83
2023/06/05 04:25:12;;;;;;;0.85;0.68;;;20.80;73.70;;;;;;5089897;28;20190;-82
2023/06/05 04:27:42;;;;;;;0.43;0.43;;;20.80;74.00;;;;;;5080676;28;20284;-81
2023/06/05 04:30:12;;;;;;;0.93;0.60;;;20.80;73.80;;;;;;5078761;28;20197;-81
2023/06/05 04:32:41;;;;;;;1.83;0.90;;;20.90;74.10;;;;;;5075447;28;20253;-82
2023/06/05 04:35:10;;;;;;;0.80;0.60;;;20.90;74.30;;;;;;5081344;28;20651;-82
2023/06/05 04:37:40;;;;;;;0.85;0.73;;;20.90;74.20;;;;;;5079009;28;20208;-81
2023/06/05 04:40:10;;;;;;;0.98;0.60;;;20.90;74.10;;;;;;5074058;28;20654;-81
2023/06/05 04:42:38;;;;;;;1.52;1.00;;;20.90;74.30;;;;;;5085526;28;20201;-81
2023/06/05 04:45:08;;;;;;;0.73;0.73;;;21.00;74.40;;;;;;5082121;28;20247;-81
2023/06/05 04:47:37;;;;;;;0.65;0.52;;;21.00;74.10;;;;;;5085447;28;20254;-82
2023/06/05 04:50:07;;;;;;;1.90;1.17;;;21.00;74.10;;;;;;5080759;28;20195;-82
2023/06/05 04:52:39;;;;;;;0.93;0.85;;;21.00;74.00;;;;;;5080790;28;20217;-82
2023/06/05 04:55:10;;;;;;;1.67;0.95;;;21.00;73.90;;;;;;5074403;28;20198;-80
2023/06/05 04:57:40;;;;;;;1.48;0.75;;;21.00;74.00;;;;;;5085537;28;20262;-82
2023/06/05 05:00:11;;;;;;;1.05;0.55;;;21.10;73.80;;;;;;5080088;28;20191;-83
2023/06/05 05:02:39;;;;;;;5.78;1.45;;;21.10;73.80;;;;;;5076671;28;20206;-83
2023/06/05 05:05:08;;;;;;;0.68;0.52;;;21.10;73.60;;;;;;5090886;28;20190;-83
2023/06/05 05:07:36;;;;;;;1.27;0.75;;;21.10;73.50;;;;;;5082124;28;20244;-82
2023/06/05 05:10:06;;;;;;;1.08;0.60;;;21.10;73.60;;;;;;5083137;28;20295;-83
2023/06/05 05:12:36;;;;;;;0.98;0.70;;;21.10;73.40;;;;;;5079352;28;20288;-83
2023/06/05 05:15:06;;;;;;;0.50;0.50;;;21.20;73.60;;;;;;5079937;28;20202;-83
2023/06/05 05:17:34;;;;;;;1.08;0.75;;;21.20;73.80;;;;;;5089463;28;20496;-81
2023/06/05 05:20:03;;;;;;;4.32;1.20;;;21.20;73.90;;;;;;5088161;28;20539;-82
2023/06/05 05:22:32;;;;;;;1.83;1.17;;;21.20;74.10;;;;;;5073386;28;20222;-81
2023/06/05 05:25:00;;;;;;;2.25;1.52;;;21.20;74.10;;;;;;5078108;28;20192;-82
2023/06/05 05:27:28;;;;;;;1.10;0.75;;;21.30;74.10;;;;;;5079415;28;20240;-81
2023/06/05 05:29:58;;;;;;;1.15;0.70;;;21.40;74.30;;;;;;5072560;28;20201;-81
2023/06/05 05:32:27;;;;;;;1.08;0.70;;;21.40;74.10;;;;;;5076560;28;20202;-82
2023/06/05 05:34:55;;;;;;;3.60;0.93;;;21.40;73.80;;;;;;5079950;28;20284;-83
2023/06/05 05:37:25;;;;;;;1.92;0.90;;;21.50;73.80;;;;;;5080880;28;20245;-82
2023/06/05 05:39:54;;;;;;;0.57;0.57;;;21.60;74.10;;;;;;5081061;28;20596;-82
2023/06/05 05:42:22;;;;;;;0.93;0.82;;;21.60;74.00;;;;;;5086833;28;20190;-83
2023/06/05 05:44:50;;;;;;;5.63;0.88;;;21.70;73.80;;;;;;5074801;28;20191;-82
2023/06/05 05:47:20;;;;;;;1.05;0.55;;;21.70;73.70;;;;;;5072920;28;20189;-84
2023/06/05 05:49:49;;;;;;;1.20;0.80;;;21.80;73.60;;;;;;5071296;28;20214;-84
2023/06/05 05:52:20;;;;;;;1.00;0.63;;;21.80;73.50;;;;;;5072203;28;20198;-83
2023/06/05 05:54:48;;;;;;;2.58;0.60;;;21.90;73.20;;;;;;5075316;28;20206;-84
2023/06/05 05:57:16;;;;;;;0.57;0.43;;;22.00;73.10;;;;;;5075998;28;20225;-83
2023/06/05 05:59:45;;;;;;;2.40;0.80;;;22.00;73.00;;;;;;5083346;28;20198;-83
2023/06/05 06:02:13;;;;;;;1.15;0.43;;;22.10;72.50;;;;;;5084832;28;20190;-83
2023/06/05 06:04:45;;;;;;;1.13;0.95;;;22.20;73.10;;;;;;5077771;28;20198;-84
2023/06/05 06:07:14;;;;;;;1.95;0.82;;;22.20;72.10;;;;;;5076068;28;20638;-83
2023/06/05 06:09:44;;;;;;;1.13;1.00;;;22.30;71.60;;;;;;5078219;28;20197;-83
2023/06/05 06:12:13;;;;;;;2.78;0.93;;;22.40;71.40;;;;;;5071439;28;20551;-83
2023/06/05 06:14:41;;;;;;;0.68;0.45;;;22.40;70.70;;;;;;5068891;28;20596;-82
2023/06/05 06:17:11;;;;;;;0.43;0.35;;;22.50;70.20;;;;;;5079490;28;20195;-83
2023/06/05 06:19:40;;;;;;;1.77;0.40;;;22.60;68.50;;;;;;5081110;28;20557;-83
2023/06/05 06:22:12;;;;;;;0.75;0.75;;;22.70;68.00;;;;;;5078181;28;20624;-81
2023/06/05 06:24:41;;;;;;;0.38;0.30;;;22.70;67.70;;;;;;5081400;28;20531;-81
2023/06/05 06:27:10;;;;;;;0.30;0.30;;;22.80;67.20;;;;;;5082160;28;20185;-82
2023/06/05 06:29:58;;;;;;;2.30;0.35;;;22.80;66.30;;;;;;5073410;28;20205;-82
2023/06/05 06:32:26;;;;;;;0.47;0.47;;;22.90;65.10;;;;;;5078249;28;20207;-81
2023/06/05 06:34:56;;;;;;;1.83;0.98;;;22.90;64.00;;;;;;5070342;28;20577;-82
2023/06/05 06:37:26;;;;;;;0.40;0.38;;;22.90;63.20;;;;;;5081569;28;20198;-81
2023/06/05 06:39:54;;;;;;;0.65;0.65;;;23.00;63.50;;;;;;5072959;28;20182;-82
2023/06/05 06:42:23;;;;;;;0.93;0.70;;;23.10;63.50;;;;;;5086619;28;20190;-82
2023/06/05 06:44:55;;;;;;;1.50;0.40;;;23.10;63.60;;;;;;5071188;28;20609;-82
2023/06/05 06:47:25;;;;;;;0.55;0.55;;;23.20;63.10;;;;;;5079179;28;20182;-83
2023/06/05 06:49:54;;;;;;;2.83;0.82;;;23.30;62.50;;;;;;5082150;28;20189;-83
2023/06/05 06:52:25;;;;;;;3.25;1.33;;;23.40;62.30;;;;;;5075074;28;20251;-83
2023/06/05 06:54:56;;;;;;;1.27;0.50;;;23.40;61.50;;;;;;5079927;28;20210;-83
2023/06/05 06:57:24;;;;;;;1.27;0.82;;;23.50;60.30;;;;;;5076866;28;20644;-82
2023/06/05 06:59:53;;;;;;;0.60;0.50;;;23.60;59.80;;;;;;5084364;28;20273;-83
2023/06/05 07:02:25;;;;;;;0.38;0.38;;;23.70;60.10;;;;;;5079393;28;20212;-83
2023/06/05 07:04:54;;;;;;;1.38;0.80;;;23.80;59.70;;;;;;5082115;28;20244;-84
2023/06/05 07:07:23;;;;;;;0.50;0.45;;;23.90;58.50;;;;;;5083723;28;20597;-83
2023/06/05 07:09:52;;;;;;;3.92;1.48;;;24.00;58.70;;;;;;5084959;28;20190;-84
2023/06/05 07:12:22;;;;;;;0.40;0.30;;;24.10;56.00;;;;;;5078354;28;20191;-83
2023/06/05 07:14:51;;;;;;;0.40;0.40;;;24.20;55.70;;;;;;5076754;28;20268;-84
2023/06/05 07:17:20;;;;;;;0.57;0.57;;;24.20;53.80;;;;;;5090284;28;20194;-84
2023/06/05 07:19:48;;;;;;;0.55;0.55;;;24.30;53.10;;;;;;5085076;28;20250;-84
2023/06/05 07:22:16;;;;;;;0.73;0.45;;;24.40;52.80;;;;;;5079240;28;20631;-83
2023/06/05 07:24:45;;;;;;;0.40;0.40;;;24.50;53.40;;;;;;5074617;28;20662;-85
2023/06/05 07:27:13;;;;;;;0.77;0.70;;;24.50;53.20;;;;;;5084513;28;20190;-84
2023/06/05 07:29:43;;;;;;;0.40;0.40;;;24.60;53.70;;;;;;5084899;28;20206;-83
2023/06/05 07:32:11;;;;;;;1.65;0.50;;;24.70;54.10;;;;;;5081601;28;20198;-83
2023/06/05 07:34:40;;;;;;;1.75;0.73;;;24.80;53.50;;;;;;5079605;28;20222;-83
2023/06/05 07:37:09;;;;;;;0.35;0.35;;;24.80;52.60;;;;;;5078951;28;20198;-83
2023/06/05 07:39:37;;;;;;;0.52;0.50;;;24.90;52.90;;;;;;5081499;28;22661;-87
2023/06/05 07:42:07;;;;;;;0.50;0.50;;;25.00;52.50;;;;;;5077291;28;20186;-83
2023/06/05 07:44:35;;;;;;;0.22;0.22;;;25.00;52.40;;;;;;5088080;28;20660;-83
2023/06/05 07:47:05;;;;;;;0.30;0.30;;;25.00;52.40;;;;;;5088795;28;20201;-84
2023/06/05 07:49:33;;;;;;;0.35;0.30;;;25.10;52.60;;;;;;5089158;28;20201;-84
2023/06/05 07:52:02;;;;;;;0.45;0.40;;;25.10;51.50;;;;;;5082821;28;20194;-86
2023/06/05 07:54:30;;;;;;;1.80;0.45;;;25.20;51.30;;;;;;5088207;28;20216;-84
2023/06/05 07:56:59;;;;;;;0.98;0.77;;;25.20;51.80;;;;;;5083995;28;20189;-84
2023/06/05 07:59:27;;;;;;;0.30;0.30;;;25.30;51.30;;;;;;5079895;28;20716;-84
2023/06/05 08:01:56;;;;;;;1.20;0.88;;;25.40;50.70;;;;;;5081301;28;20194;-83
2023/06/05 08:04:27;;;;;;;0.30;0.30;;;25.40;49.50;;;;;;5081300;28;20189;-85
2023/06/05 08:06:56;;;;;;;3.30;0.75;;;25.50;48.20;;;;;;5084905;28;20192;-83
2023/06/05 08:09:24;;;;;;;1.30;0.77;;;25.50;47.90;;;;;;5077767;28;20192;-83
2023/06/05 08:11:52;;;;;;;0.45;0.43;;;25.50;47.50;;;;;;5081678;28;20223;-84
2023/06/05 08:14:21;;;;;;;0.95;0.40;;;25.50;46.30;;;;;;5085904;28;20230;-84
2023/06/05 08:16:49;;;;;;;0.30;0.30;;;25.60;47.60;;;;;;5083099;28;20611;-84
2023/06/05 08:19:18;;;;;;;0.47;0.40;;;25.60;47.60;;;;;;5086619;28;20200;-84
2023/06/05 08:21:47;;;;;;;0.50;0.50;;;25.60;47.30;;;;;;5074208;28;20230;-84
2023/06/05 08:24:16;;;;;;;0.63;0.63;;;25.60;46.90;;;;;;5080601;28;20202;-85
2023/06/05 08:26:44;;;;;;;1.73;0.50;;;25.70;46.70;;;;;;5089222;28;20193;-84
2023/06/05 08:29:13;;;;;;;1.27;0.70;;;25.60;46.80;;;;;;5075378;28;20244;-84
2023/06/05 08:31:41;;;;;;;0.45;0.40;;;25.60;48.00;;;;;;5080605;28;20199;-85
2023/06/05 08:34:10;;;;;;;0.40;0.40;;;25.70;47.50;;;;;;5075185;28;20194;-81
2023/06/05 08:36:38;;;;;;;1.85;0.40;;;25.70;47.90;;;;;;5080409;28;20276;-85
2023/06/05 08:39:08;;;;;;;0.70;0.65;;;25.70;46.40;;;;;;5078742;28;20193;-84
2023/06/05 08:41:38;;;;;;;0.32;0.32;;;25.80;47.10;;;;;;5074195;28;20198;-85
2023/06/05 08:44:06;;;;;;;2.72;0.50;;;25.80;47.10;;;;;;5074952;28;21868;-85
2023/06/05 08:46:41;;;;;;;1.10;0.40;;;25.80;47.30;;;;;;5082631;28;20190;-83
2023/06/05 08:49:12;;;;;;;0.30;0.30;;;25.90;47.00;;;;;;5074443;28;20197;-82
2023/06/05 08:51:42;;;;;;;0.50;0.40;;;25.90;46.70;;;;;;5080961;28;20206;-84
2023/06/05 08:54:15;;;;;;;2.78;0.75;;;26.00;47.00;;;;;;5073352;28;20540;-84
2023/06/05 08:56:44;;;;;;;0.40;0.40;;;26.00;46.40;;;;;;5074270;28;20200;-82
2023/06/05 08:59:15;;;;;;;1.05;0.95;;;26.10;46.60;;;;;;5079679;28;20738;-83
2023/06/05 09:01:44;;;;;;;0.70;0.52;;;26.10;46.60;;;;;;5073998;28;20547;-84
2023/06/05 09:04:13;;;;;;;0.63;0.63;;;26.10;45.70;;;;;;5077088;28;20597;-84
2023/06/05 09:06:45;;;;;;;1.08;0.73;;;26.20;46.30;;;;;;5081704;28;20194;-84
2023/06/05 09:09:16;;;;;;;0.75;0.50;;;26.20;46.50;;;;;;5078531;28;20205;-85
2023/06/05 09:11:44;;;;;;;0.57;0.43;;;26.20;46.30;;;;;;5082814;28;20201;-85
2023/06/05 09:14:13;;;;;;;0.80;0.50;;;26.20;45.90;;;;;;5074171;28;20904;-84
2023/06/05 09:16:44;;;;;;;0.28;0.28;;;26.30;45.90;;;;;;5076576;28;20260;-85
2023/06/05 09:19:13;;;;;;;1.13;0.60;;;26.30;45.90;;;;;;5076512;28;20183;-83
2023/06/05 09:21:42;;;;;;;0.25;0.20;;;26.40;47.20;;;;;;5074703;28;20217;-85
2023/06/05 09:24:16;;;;;;;1.10;0.63;;;26.40;45.90;;;;;;5075496;28;20194;-82
2023/06/05 09:26:51;;;;;;;1.23;0.60;;;26.50;46.20;;;;;;5072565;28;20197;-83
2023/06/05 09:29:24;;;;;;;0.30;0.30;;;26.40;45.50;;;;;;5076502;28;20193;-83
2023/06/05 09:31:53;;;;;;;0.55;0.40;;;26.50;45.10;;;;;;5071917;28;20186;-82
2023/06/05 09:34:23;;;;;;;0.93;0.47;;;26.50;42.00;;;;;;5076280;28;20194;-83
2023/06/05 09:36:51;;;;;;;0.68;0.55;;;26.60;43.60;;;;;;5081432;28;20221;-84
2023/06/05 09:39:21;;;;;;;0.30;0.30;;;26.50;43.00;;;;;;5081969;28;20560;-83
2023/06/05 09:41:51;;;;;;;0.25;0.25;;;26.60;43.10;;;;;;5084379;28;20635;-83
2023/06/05 09:44:20;;;;;;;0.20;0.20;;;26.60;43.20;;;;;;5092288;28;20545;-82
2023/06/05 09:46:57;;;;;;;1.50;0.40;;;26.70;43.40;;;;;;5078375;28;20195;-83
2023/06/05 09:49:28;;;;;;;2.00;1.00;;;26.70;42.10;;;;;;5073913;28;20215;-80
2023/06/05 09:51:58;;;;;;;1.95;0.40;;;26.80;42.40;;;;;;5077748;28;20267;-85
2023/06/05 09:54:29;;;;;;;0.63;0.30;;;26.80;42.20;;;;;;5079126;28;20197;-84
2023/06/05 09:56:59;;;;;;;0.45;0.30;;;26.90;42.00;;;;;;5077802;28;20348;-83
2023/06/05 09:59:31;;;;;;;0.22;0.22;;;27.00;42.10;;;;;;5087515;28;20221;-83
2023/06/05 10:02:04;;;;;;;0.35;0.35;;;27.00;41.20;;;;;;5080780;28;20624;-83
2023/06/05 10:04:41;;;;;;;0.20;0.20;;;27.10;42.20;;;;;;5081529;28;20193;-85
2023/06/05 10:07:10;;;;;;;0.68;0.55;;;27.20;41.90;;;;;;5079472;28;20557;-84
2023/06/05 10:09:41;;;;;;;1.13;0.50;;;27.30;41.80;;;;;;5084078;28;20199;-84
2023/06/05 10:12:10;;;;;;;1.10;0.50;;;27.40;42.40;;;;;;5077995;28;20186;-83
2023/06/05 10:14:43;;;;;;;0.20;0.20;;;27.40;42.00;;;;;;5080952;28;20197;-85
2023/06/05 10:17:13;;;;;;;3.35;0.40;;;27.50;42.30;;;;;;5078055;28;20213;-84
2023/06/05 10:19:43;;;;;;;1.40;0.40;;;27.60;42.10;;;;;;5091337;28;20562;-84
2023/06/05 10:22:12;;;;;;;0.43;0.30;;;27.60;42.30;;;;;;5080066;28;20223;-83
2023/06/05 10:24:46;;;;;;;0.77;0.43;;;27.70;42.70;;;;;;5082806;28;20240;-84
2023/06/05 10:27:39;;;;;;;1.02;0.50;;;27.70;42.80;;;;;;5076237;28;20232;-85
2023/06/05 10:30:31;;;;;;;0.20;0.20;;;27.70;40.30;;;;;;5080848;28;20218;-86
2023/06/05 10:33:10;;;;;;;0.40;0.40;;;27.70;40.60;;;;;;5076808;28;20185;-85
2023/06/05 10:35:50;;;;;;;1.23;0.47;;;27.60;41.00;;;;;;5081870;28;20211;-85
2023/06/05 10:38:21;;;;;;;0.50;0.30;;;27.70;41.50;;;;;;5079321;28;20545;-85
2023/06/05 10:40:54;;;;;;;0.38;0.35;;;27.70;41.40;;;;;;5081652;28;20253;-85
2023/06/05 10:43:30;;;;;;;0.45;0.30;;;27.80;41.70;;;;;;5094509;28;20209;-87
2023/06/05 10:46:00;;;;;;;1.25;0.43;;;27.90;42.20;;;;;;5082436;28;20280;-84
2023/06/05 10:49:14;;;;;;;7.68;0.47;;;27.90;42.00;;;;;;5083969;28;20203;-85
2023/06/05 10:51:43;;;;;;;1.10;0.32;;;28.00;42.30;;;;;;5078012;28;20182;-84
2023/06/05 10:54:15;;;;;;;0.30;0.30;;;28.00;41.60;;;;;;5074013;28;20198;-84
2023/06/05 10:57:00;;;;;;;0.20;0.20;;;28.10;41.80;;;;;;5070199;28;20293;-84
2023/06/05 10:59:30;;;;;;;0.40;0.30;;;28.10;41.80;;;;;;5077388;28;20565;-84
2023/06/05 11:02:24;;;;;;;0.50;0.30;;;28.10;41.90;;;;;;5080181;28;20190;-86
2023/06/05 11:05:12;;;;;;;0.38;0.30;;;28.10;41.80;;;;;;5081278;28;20193;-85
2023/06/05 11:07:42;;;;;;;0.40;0.40;;;28.10;41.10;;;;;;5084514;28;20654;-83
2023/06/05 11:10:21;;;;;;;0.68;0.30;;;28.20;41.40;;;;;;5085690;28;20256;-84
2023/06/05 11:13:03;;;;;;;13.15;0.52;;;28.20;41.90;;;;;;5078850;28;20189;-86
2023/06/05 11:15:37;;;;;;;1.08;0.65;;;28.20;40.90;;;;;;5079651;28;20334;-83
2023/06/05 11:18:27;;;;;;;0.57;0.43;;;28.30;41.50;;;;;;5076843;28;20194;-84
2023/06/05 11:20:57;;;;;;;10.95;3.30;;;28.40;41.90;;;;;;5078446;28;20502;-83
2023/06/05 11:23:27;;;;;;;3.70;2.28;;;28.40;41.30;;;;;;5078891;28;20661;-83
2023/06/05 11:26:00;;;;;;;0.63;0.40;;;28.40;41.40;;;;;;5078003;28;20193;-82
2023/06/05 11:28:40;;;;;;;0.30;0.30;;;28.50;41.80;;;;;;5095004;28;20185;-84
2023/06/05 11:31:09;;;;;;;0.77;0.60;;;28.50;41.50;;;;;;5072349;28;20201;-85
2023/06/05 11:33:38;;;;;;;0.30;0.30;;;28.50;42.10;;;;;;5083307;28;20234;-86
2023/06/05 11:36:08;;;;;;;0.47;0.45;;;28.60;42.40;;;;;;5085738;28;20229;-84
2023/06/05 11:38:37;;;;;;;3.53;0.70;;;28.60;42.20;;;;;;5081528;28;20186;-85
2023/06/05 11:41:09;;;;;;;0.30;0.30;;;28.60;42.10;;;;;;5092501;28;20661;-84
2023/06/05 11:43:47;;;;;;;0.65;0.50;;;28.70;41.50;;;;;;5077781;28;20193;-85
2023/06/05 11:46:15;;;;;;;0.40;0.35;;;28.70;41.50;;;;;;5084800;28;20267;-88
2023/06/05 11:48:45;;;;;;;0.82;0.50;;;28.70;41.00;;;;;;5080881;28;20552;-86
2023/06/05 11:51:15;;;;;;;0.20;0.20;;;28.80;41.70;;;;;;5083859;28;20192;-84
2023/06/05 11:53:49;;;;;;;3.10;0.70;;;28.90;42.00;;;;;;5084966;28;20201;-84
2023/06/05 11:56:18;;;;;;;0.57;0.50;;;29.00;41.80;;;;;;5083352;28;20213;-85
2023/06/05 11:58:50;;;;;;;0.35;0.35;;;29.00;41.80;;;;;;5088612;28;20609;-85
2023/06/05 12:01:21;;;;;;;0.32;0.32;;;29.10;42.10;;;;;;5082763;28;20186;-84
2023/06/05 12:04:03;;;;;;;0.40;0.40;;;29.10;41.80;;;;;;5080716;28;20193;-84
2023/06/05 12:06:32;;;;;;;0.45;0.40;;;29.10;41.70;;;;;;5084091;28;20198;-83
2023/06/05 12:09:10;;;;;;;0.25;0.25;;;29.10;42.10;;;;;;5085036;28;20213;-85
2023/06/05 12:11:39;;;;;;;0.32;0.32;;;29.00;42.00;;;;;;5083251;27;20202;-85
2023/06/05 12:14:10;;;;;;;0.40;0.40;;;29.00;41.90;;;;;;5078038;28;20263;-85
2023/06/05 12:16:42;;;;;;;6.38;0.82;;;29.10;42.50;;;;;;5081633;28;20697;-84
2023/06/05 12:19:16;;;;;;;1.85;0.70;;;29.10;42.90;;;;;;5078841;28;20199;-83
2023/06/05 12:21:46;;;;;;;0.80;0.70;;;29.30;43.20;;;;;;5083894;28;20319;-83
2023/06/05 12:24:15;;;;;;;0.57;0.57;;;29.30;43.20;;;;;;5085725;28;20190;-84
2023/06/05 12:26:53;;;;;;;0.50;0.50;;;29.40;43.00;;;;;;5075901;28;20761;-84
2023/06/05 12:29:25;;;;;;;1.40;0.98;;;29.50;43.30;;;;;;5078773;28;20186;-83
2023/06/05 12:31:53;;;;;;;0.73;0.52;;;29.50;42.20;;;;;;5083343;28;20183;-84
2023/06/05 12:34:41;;;;;;;0.50;0.30;;;29.50;41.50;;;;;;5080334;28;20627;-84
2023/06/05 12:37:29;;;;;;;4.68;0.57;;;29.50;41.90;;;;;;5080828;28;20305;-86
2023/06/05 12:39:59;;;;;;;0.65;0.65;;;29.60;42.30;;;;;;5079028;28;20191;-84
2023/06/05 12:42:28;;;;;;;0.43;0.43;;;29.60;42.30;;;;;;5081750;28;20259;-85
2023/06/05 12:44:58;;;;;;;2.83;1.15;;;29.70;42.40;;;;;;5088471;28;20197;-81
2023/06/05 12:47:26;;;;;;;2.83;1.52;;;29.80;42.30;;;;;;5082483;28;20190;-84
2023/06/05 12:49:55;;;;;;;0.43;0.43;;;29.90;42.40;;;;;;5082588;28;20669;-85
2023/06/05 12:52:25;;;;;;;1.02;0.93;;;30.00;40.90;;;;;;5084290;28;20240;-83
2023/06/05 12:54:54;;;;;;;1.60;0.60;;;30.10;41.20;;;;;;5085573;28;20204;-84
2023/06/05 12:57:23;;;;;;;0.95;0.38;;;30.10;41.20;;;;;;5078881;28;20256;-83
2023/06/05 12:59:54;;;;;;;1.42;0.77;;;30.20;41.30;;;;;;5085577;28;20205;-85
2023/06/05 13:02:24;;;;;;;0.40;0.40;;;30.20;41.10;;;;;;5079814;28;20191;-85
2023/06/05 13:04:53;;;;;;;0.75;0.40;;;30.20;40.90;;;;;;5082540;28;20269;-86